Terminal Aerodrome Forecast
Issued by NWS

Home | Current Version | Previous Version | Graphics & Text | Print | Product List | Glossary On
Versions: 1 2 3 4 5 6 7 8 9 10 11 12 13 14 15 16 17 18
000
FTUS43 KABR 240527
TAFMBG
TAF
KMBG 240527Z 2406/2506 06006KT P6SM FEW040 SCT050 BKN100
      TEMPO 2408/2411 P6SM -RA OVC015
     FM241200 05006KT P6SM OVC010
     FM241500 05010KT 3SM -RA BR OVC009=

USA.gov is the U.S. government's official web portal to all federal, state and local government web resources and services.